createdAt,value
2023-03-08T00:00:28.623Z,1.53
2023-03-08T00:03:34.812Z,1.48
2023-03-08T00:06:16.076Z,1.31
2023-03-08T00:08:49.481Z,1.41
2023-03-08T00:11:21.609Z,1.30
2023-03-08T00:13:55.100Z,1.25
2023-03-08T00:16:27.326Z,1.22
2023-03-08T00:19:01.298Z,1.23
2023-03-08T00:21:33.303Z,1.14
2023-03-08T00:24:05.661Z,1.18
2023-03-08T00:26:37.653Z,1.18
2023-03-08T00:29:09.775Z,1.18
2023-03-08T00:31:42.235Z,1.12
2023-03-08T00:34:14.348Z,1.02
2023-03-08T00:36:47.508Z,1.04
2023-03-08T00:39:19.731Z,1.11
2023-03-08T00:41:51.716Z,1.18
2023-03-08T00:44:23.820Z,1.19
2023-03-08T00:46:56.061Z,1.10
2023-03-08T00:49:30.394Z,1.01
2023-03-08T00:52:02.708Z,0.98
2023-03-08T00:54:35.158Z,1.02
2023-03-08T00:57:07.177Z,1.05
2023-03-08T00:59:39.216Z,1.07
2023-03-08T01:02:30.670Z,1.04
2023-03-08T01:05:02.651Z,0.97
2023-03-08T01:07:34.697Z,0.99
2023-03-08T01:10:07.186Z,0.96
2023-03-08T01:12:46.702Z,0.93
2023-03-08T01:15:18.961Z,0.96
2023-03-08T01:17:50.962Z,0.97
2023-03-08T01:20:23.109Z,1.00
2023-03-08T01:22:55.075Z,0.95
2023-03-08T01:25:38.268Z,0.98
2023-03-08T01:28:14.072Z,0.87
2023-03-08T01:30:46.198Z,0.86
2023-03-08T01:33:18.282Z,0.85
2023-03-08T01:35:50.544Z,0.80
2023-03-08T01:38:24.014Z,0.85
2023-03-08T01:40:58.735Z,0.80
2023-03-08T01:43:39.426Z,0.85
2023-03-08T01:49:30.720Z,0.83
2023-03-08T01:52:19.282Z,0.81
2023-03-08T01:54:59.023Z,0.75
2023-03-08T01:57:39.432Z,0.74
2023-03-08T02:00:15.337Z,0.76
2023-03-08T02:03:06.386Z,0.71
2023-03-08T02:05:43.666Z,0.67
2023-03-08T02:08:15.651Z,0.65
2023-03-08T02:10:49.297Z,0.63
2023-03-08T02:13:21.858Z,0.61
2023-03-08T02:15:56.866Z,0.62
2023-03-08T02:18:29.151Z,0.63
2023-03-08T02:21:01.740Z,0.58
2023-03-08T02:23:33.785Z,0.53
2023-03-08T02:26:06.065Z,0.51
2023-03-08T02:28:39.221Z,0.55
2023-03-08T02:31:13.307Z,0.57
2023-03-08T02:33:45.365Z,0.56
2023-03-08T02:36:17.505Z,0.61
2023-03-08T02:38:49.534Z,0.54
2023-03-08T02:44:12.583Z,0.51
2023-03-08T02:46:53.602Z,0.56
2023-03-08T02:49:25.576Z,0.55
2023-03-08T02:51:57.650Z,0.55
2023-03-08T02:54:29.704Z,0.55
2023-03-08T02:57:01.654Z,0.65
2023-03-08T02:59:35.478Z,0.67
2023-03-08T03:02:18.786Z,0.76
2023-03-08T03:04:51.137Z,0.90
2023-03-08T03:07:23.099Z,0.86
2023-03-08T03:09:55.138Z,1.05
2023-03-08T03:12:27.142Z,1.00
2023-03-08T03:14:59.175Z,1.02
2023-03-08T03:17:32.338Z,1.05
2023-03-08T03:20:08.302Z,1.13
2023-03-08T03:25:28.233Z,1.24
2023-03-08T03:28:00.274Z,1.18
2023-03-08T03:30:34.346Z,1.14
2023-03-08T03:33:06.427Z,1.12
2023-03-08T03:35:39.736Z,1.09
2023-03-08T03:38:13.454Z,1.02
2023-03-08T03:40:45.550Z,1.02
2023-03-08T03:43:19.073Z,0.98
2023-03-08T03:45:59.165Z,1.00
2023-03-08T03:48:31.523Z,1.08
2023-03-08T03:51:17.820Z,1.09
2023-03-08T03:53:50.595Z,1.14
2023-03-08T03:56:25.601Z,1.07
2023-03-08T03:58:57.670Z,1.06
2023-03-08T04:01:32.286Z,1.05
2023-03-08T04:04:04.505Z,1.01
2023-03-08T04:06:36.735Z,1.00
2023-03-08T04:09:15.449Z,1.00
2023-03-08T04:11:47.617Z,0.99
2023-03-08T04:14:19.736Z,0.97
2023-03-08T04:16:51.816Z,1.02
2023-03-08T04:19:26.913Z,0.97
2023-03-08T04:21:59.259Z,1.05
2023-03-08T04:24:31.384Z,1.02
2023-03-08T04:27:03.806Z,1.02
2023-03-08T04:29:35.814Z,0.88
2023-03-08T04:32:07.892Z,0.90
2023-03-08T04:34:40.009Z,0.98
2023-03-08T04:37:12.814Z,0.98
2023-03-08T04:39:44.841Z,0.99
2023-03-08T04:42:18.021Z,1.04
2023-03-08T04:44:51.953Z,1.08
2023-03-08T04:47:23.976Z,1.10
2023-03-08T04:49:55.982Z,1.06
2023-03-08T04:52:28.172Z,1.07
2023-03-08T04:55:00.311Z,0.94
2023-03-08T04:57:32.388Z,0.98
2023-03-08T05:00:06.024Z,0.97
2023-03-08T05:02:38.201Z,0.96
2023-03-08T05:05:10.264Z,1.00
2023-03-08T05:07:42.291Z,0.92
2023-03-08T05:10:14.299Z,0.85
2023-03-08T05:12:53.358Z,0.93
2023-03-08T05:15:25.670Z,0.87
2023-03-08T05:17:57.795Z,0.93
2023-03-08T05:21:01.158Z,0.98
2023-03-08T05:23:33.838Z,0.90
2023-03-08T05:26:21.856Z,0.92
2023-03-08T05:28:53.836Z,1.02
2023-03-08T05:31:25.910Z,0.95
2023-03-08T05:33:58.082Z,0.91
2023-03-08T05:36:30.060Z,0.87
2023-03-08T05:39:02.150Z,0.80
2023-03-08T05:41:34.146Z,0.74
2023-03-08T05:44:21.720Z,0.71
2023-03-08T05:46:54.037Z,0.71
2023-03-08T05:49:26.149Z,0.71
2023-03-08T05:51:58.125Z,0.81
2023-03-08T05:54:30.569Z,0.89
2023-03-08T05:57:02.659Z,0.89
2023-03-08T05:59:34.745Z,0.84
2023-03-08T06:02:06.703Z,0.80
2023-03-08T06:04:38.679Z,0.78
2023-03-08T06:10:12.909Z,0.89
2023-03-08T06:12:44.893Z,0.94
2023-03-08T06:15:17.176Z,1.02
2023-03-08T06:17:52.754Z,0.96
2023-03-08T06:20:25.046Z,0.93
2023-03-08T06:22:57.129Z,0.90
2023-03-08T06:25:29.127Z,1.00
2023-03-08T06:28:01.096Z,0.99
2023-03-08T06:30:33.209Z,1.04
2023-03-08T06:33:05.223Z,1.03
2023-03-08T06:35:38.414Z,1.07
2023-03-08T06:38:10.654Z,1.03
2023-03-08T06:41:11.720Z,1.14
2023-03-08T06:43:44.123Z,1.03
2023-03-08T06:46:18.908Z,1.10
2023-03-08T06:48:55.112Z,1.00
2023-03-08T06:51:27.387Z,1.04
2023-03-08T06:53:59.390Z,1.22
2023-03-08T06:56:31.397Z,1.31
2023-03-08T06:59:03.557Z,1.26
2023-03-08T07:01:35.695Z,1.42
2023-03-08T07:04:08.355Z,1.54
2023-03-08T07:06:40.562Z,1.42
2023-03-08T07:09:13.968Z,1.50
2023-03-08T07:11:45.980Z,1.52
2023-03-08T07:14:17.989Z,1.54
2023-03-08T07:16:49.967Z,1.61
2023-03-08T07:19:22.043Z,1.53
2023-03-08T07:21:54.105Z,1.54
2023-03-08T07:24:26.422Z,1.44
2023-03-08T07:26:58.479Z,1.44
2023-03-08T07:29:30.626Z,1.50
2023-03-08T07:32:02.810Z,1.60
2023-03-08T07:34:43.921Z,1.67
2023-03-08T07:37:16.989Z,1.82
2023-03-08T07:39:51.475Z,1.92
2023-03-08T07:42:23.549Z,1.93
2023-03-08T07:44:55.566Z,1.98
2023-03-08T07:47:30.412Z,1.97
2023-03-08T07:50:02.496Z,2.08
2023-03-08T07:52:34.575Z,2.25
2023-03-08T07:55:07.652Z,2.16
2023-03-08T07:57:39.684Z,2.12
2023-03-08T08:00:12.382Z,2.19
2023-03-08T08:02:44.433Z,2.15
2023-03-08T08:05:16.747Z,2.22
2023-03-08T08:07:49.336Z,2.36
2023-03-08T08:10:21.402Z,2.44
2023-03-08T08:12:53.500Z,2.63
2023-03-08T08:15:28.902Z,2.63
2023-03-08T08:18:01.402Z,2.49
2023-03-08T08:20:33.452Z,2.27
2023-03-08T08:23:06.830Z,2.29
2023-03-08T08:25:40.186Z,2.37
2023-03-08T08:28:12.155Z,2.40
2023-03-08T08:30:44.093Z,2.43
2023-03-08T08:33:16.079Z,2.43
2023-03-08T08:35:49.782Z,2.60
2023-03-08T08:38:22.393Z,2.74
2023-03-08T08:40:54.429Z,2.98
2023-03-08T08:43:26.903Z,3.08
2023-03-08T08:46:00.913Z,3.07
2023-03-08T08:48:38.478Z,3.48
2023-03-08T08:51:13.765Z,3.60
2023-03-08T08:53:45.816Z,3.77
2023-03-08T08:56:27.557Z,3.44
2023-03-08T08:59:02.507Z,3.59
2023-03-08T09:01:35.823Z,3.49
2023-03-08T09:04:07.905Z,3.67
2023-03-08T09:06:40.387Z,3.97
2023-03-08T09:09:12.393Z,4.47
2023-03-08T09:11:54.201Z,4.74
2023-03-08T09:14:26.661Z,4.58
2023-03-08T09:16:58.940Z,4.46
2023-03-08T09:19:31.234Z,4.55
2023-03-08T09:22:03.608Z,4.84
2023-03-08T09:24:35.850Z,5.09
2023-03-08T09:27:08.057Z,5.36
2023-03-08T09:29:40.189Z,5.44
2023-03-08T09:32:12.359Z,5.48
2023-03-08T09:34:48.999Z,5.27
2023-03-08T09:37:21.526Z,5.22
2023-03-08T09:39:54.432Z,4.99
2023-03-08T09:42:38.365Z,4.80
2023-03-08T09:45:28.396Z,4.47
2023-03-08T09:48:18.291Z,4.48
2023-03-08T09:50:57.951Z,4.56
2023-03-08T09:53:38.489Z,4.63
2023-03-08T09:56:31.494Z,4.67
2023-03-08T09:59:14.166Z,5.08
2023-03-08T10:02:03.359Z,5.19
2023-03-08T10:05:31.883Z,5.75
2023-03-08T10:08:17.770Z,6.40
2023-03-08T10:11:04.334Z,6.70
2023-03-08T10:13:48.270Z,7.04
2023-03-08T10:16:28.811Z,7.20
2023-03-08T10:19:40.488Z,7.15
2023-03-08T10:22:34.389Z,7.19
2023-03-08T10:25:31.715Z,7.14
2023-03-08T10:28:18.403Z,6.96
2023-03-08T10:31:26.343Z,6.93
2023-03-08T10:34:21.621Z,6.61
2023-03-08T10:37:02.762Z,6.61
2023-03-08T10:39:37.332Z,6.37
2023-03-08T10:42:16.962Z,6.35
2023-03-08T10:45:22.161Z,6.53
2023-03-08T10:48:06.044Z,6.50
2023-03-08T10:50:38.281Z,6.56
2023-03-08T10:53:20.997Z,6.70
2023-03-08T10:55:53.387Z,6.79
2023-03-08T10:58:38.198Z,6.55
2023-03-08T11:01:28.113Z,6.61
2023-03-08T11:04:23.560Z,6.82
2023-03-08T11:06:55.971Z,6.77
2023-03-08T11:09:33.577Z,6.68
2023-03-08T11:12:05.763Z,6.84
2023-03-08T11:14:38.098Z,7.13
2023-03-08T11:21:44.708Z,7.12
2023-03-08T11:24:53.117Z,7.15
2023-03-08T11:27:43.107Z,7.37
2023-03-08T11:30:58.946Z,7.30
2023-03-08T11:33:53.393Z,7.44
2023-03-08T11:36:43.016Z,7.44
2023-03-08T11:39:24.339Z,7.46
2023-03-08T11:42:07.438Z,7.08
2023-03-08T11:45:22.129Z,7.04
2023-03-08T11:48:35.510Z,7.36
2023-03-08T11:51:15.375Z,7.57
2023-03-08T11:53:56.358Z,7.77
2023-03-08T11:56:47.232Z,7.83
2023-03-08T11:59:36.313Z,8.08
2023-03-08T12:02:08.290Z,8.20
2023-03-08T12:05:02.042Z,8.18
2023-03-08T12:07:44.925Z,8.42
2023-03-08T12:10:50.010Z,8.48
2023-03-08T12:13:46.847Z,8.65
2023-03-08T12:16:35.218Z,8.65
2023-03-08T12:19:46.176Z,8.52
2023-03-08T12:22:46.351Z,8.50
2023-03-08T12:25:33.309Z,8.47
2023-03-08T12:29:00.520Z,8.40
2023-03-08T12:31:54.340Z,8.11
2023-03-08T12:34:39.831Z,7.83
2023-03-08T12:37:28.087Z,7.67
2023-03-08T12:40:10.876Z,7.78
2023-03-08T12:42:43.062Z,7.78
2023-03-08T12:45:41.256Z,7.71
2023-03-08T12:48:23.886Z,7.68
2023-03-08T12:51:03.556Z,7.65
2023-03-08T12:53:50.805Z,7.77
2023-03-08T12:56:51.258Z,7.80
2023-03-08T12:59:35.874Z,7.93
2023-03-08T13:02:30.741Z,8.06
2023-03-08T13:05:19.866Z,8.23
2023-03-08T13:08:13.684Z,8.24
2023-03-08T13:11:13.403Z,8.24
2023-03-08T13:14:51.546Z,7.96
2023-03-08T13:17:35.941Z,7.64
2023-03-08T13:20:30.184Z,7.50
2023-03-08T13:23:13.998Z,7.58
2023-03-08T13:26:51.032Z,7.49
2023-03-08T13:29:30.132Z,7.61
2023-03-08T13:32:12.509Z,7.70
2023-03-08T13:34:47.769Z,7.89
2023-03-08T13:37:31.396Z,7.88
2023-03-08T13:40:09.704Z,7.92
2023-03-08T13:42:58.746Z,8.16
2023-03-08T13:45:31.227Z,8.07
2023-03-08T13:48:09.251Z,7.98
2023-03-08T13:50:51.248Z,7.89
2023-03-08T13:53:30.481Z,7.89
2023-03-08T13:56:06.124Z,7.72
2023-03-08T13:59:22.886Z,7.55
2023-03-08T14:01:56.121Z,7.22
2023-03-08T14:04:31.101Z,7.35
2023-03-08T14:07:05.262Z,7.51
2023-03-08T14:09:38.373Z,7.50
2023-03-08T14:12:17.572Z,7.43
2023-03-08T14:14:57.368Z,7.32
2023-03-08T14:17:32.558Z,7.34
2023-03-08T14:20:19.206Z,7.38
2023-03-08T14:22:53.863Z,7.45
2023-03-08T14:25:31.483Z,7.44
2023-03-08T14:28:11.476Z,7.52
2023-03-08T14:30:49.128Z,7.40
2023-03-08T14:33:28.302Z,7.32
2023-03-08T14:36:06.179Z,7.30
2023-03-08T14:38:38.885Z,7.11
2023-03-08T14:41:15.512Z,7.11
2023-03-08T14:43:49.609Z,7.02
2023-03-08T14:46:24.010Z,6.91
2023-03-08T14:49:05.303Z,6.79
2023-03-08T14:51:42.306Z,6.76
2023-03-08T14:54:36.917Z,6.68
2023-03-08T14:57:24.575Z,6.49
2023-03-08T15:00:14.090Z,6.48
2023-03-08T15:02:46.190Z,6.60
2023-03-08T15:05:29.166Z,6.57
2023-03-08T15:08:01.840Z,6.48
2023-03-08T15:10:37.445Z,6.39
2023-03-08T15:13:19.419Z,6.40
2023-03-08T15:15:51.612Z,6.34
2023-03-08T15:18:23.920Z,6.27
2023-03-08T15:20:56.823Z,6.31
2023-03-08T15:23:32.663Z,6.35
2023-03-08T15:26:06.770Z,6.30
2023-03-08T15:29:15.442Z,6.29
2023-03-08T15:31:47.466Z,6.26
2023-03-08T15:34:20.266Z,6.31
2023-03-08T15:36:53.912Z,6.38
2023-03-08T15:42:48.900Z,6.37
2023-03-08T15:45:21.554Z,6.30
2023-03-08T15:48:03.005Z,6.29
2023-03-08T15:50:36.228Z,6.23
2023-03-08T15:53:09.423Z,6.23
2023-03-08T15:55:41.781Z,6.22
2023-03-08T15:58:13.830Z,6.18
2023-03-08T16:00:45.938Z,6.22
2023-03-08T16:03:26.114Z,6.25
2023-03-08T16:06:01.251Z,6.21
2023-03-08T16:08:33.266Z,6.22
2023-03-08T16:11:10.229Z,6.17
2023-03-08T16:13:42.785Z,6.08
2023-03-08T16:16:14.955Z,6.05
2023-03-08T16:18:47.156Z,5.95
2023-03-08T16:21:27.560Z,5.95
2023-03-08T16:24:02.492Z,6.01
2023-03-08T16:26:34.477Z,5.98
2023-03-08T16:29:06.568Z,5.92
2023-03-08T16:31:38.832Z,5.93
2023-03-08T16:34:12.309Z,5.86
2023-03-08T16:36:44.705Z,5.84
2023-03-08T16:39:16.739Z,5.85
2023-03-08T16:41:49.649Z,5.80
2023-03-08T16:44:27.959Z,5.74
2023-03-08T16:47:00.136Z,5.78
2023-03-08T16:49:32.198Z,5.74
2023-03-08T16:52:05.677Z,5.74
2023-03-08T16:54:37.974Z,5.74
2023-03-08T16:57:19.456Z,5.64
2023-03-08T16:59:51.801Z,5.62
2023-03-08T17:02:24.088Z,5.63
2023-03-08T17:04:56.287Z,5.59
2023-03-08T17:07:28.429Z,5.54
2023-03-08T17:10:01.372Z,5.53
2023-03-08T17:12:33.439Z,5.53
2023-03-08T17:15:06.268Z,5.50
2023-03-08T17:17:41.545Z,5.48
2023-03-08T17:20:32.747Z,5.46
2023-03-08T17:23:05.067Z,5.40
2023-03-08T17:25:41.084Z,5.38
2023-03-08T17:28:14.029Z,5.24
2023-03-08T17:30:46.095Z,5.24
2023-03-08T17:33:18.221Z,5.23
2023-03-08T17:35:57.004Z,5.26
2023-03-08T17:38:29.712Z,5.26
2023-03-08T17:41:13.063Z,5.20
2023-03-08T17:43:45.244Z,5.19
2023-03-08T17:46:24.111Z,5.18
2023-03-08T17:48:56.758Z,5.16
2023-03-08T17:51:31.559Z,5.10
2023-03-08T17:54:08.950Z,5.14
2023-03-08T17:56:42.028Z,5.08
2023-03-08T17:59:16.777Z,4.98
2023-03-08T18:01:48.823Z,4.89
2023-03-08T18:04:22.213Z,4.82
2023-03-08T18:06:54.295Z,4.69
2023-03-08T18:09:28.388Z,4.57
2023-03-08T18:12:00.457Z,4.47
2023-03-08T18:14:40.071Z,4.46
2023-03-08T18:17:12.658Z,4.52
2023-03-08T18:19:44.849Z,4.34
2023-03-08T18:22:17.956Z,4.16
2023-03-08T18:24:49.966Z,3.96
2023-03-08T18:27:22.010Z,3.97
2023-03-08T18:29:57.489Z,4.01
2023-03-08T18:32:30.310Z,3.96
2023-03-08T18:35:02.420Z,4.03
2023-03-08T18:37:35.586Z,4.00
2023-03-08T18:40:12.101Z,3.96
2023-03-08T18:42:48.865Z,3.95
2023-03-08T18:45:21.285Z,3.90
2023-03-08T18:47:53.940Z,3.85
2023-03-08T18:50:26.094Z,3.74
2023-03-08T18:52:58.267Z,3.70
2023-03-08T18:55:33.114Z,3.76
2023-03-08T18:58:05.390Z,3.69
2023-03-08T19:00:37.495Z,3.76
2023-03-08T19:03:19.367Z,3.78
2023-03-08T19:05:51.967Z,3.83
2023-03-08T19:08:25.595Z,3.81
2023-03-08T19:10:59.068Z,3.69
2023-03-08T19:13:31.110Z,3.67
2023-03-08T19:16:03.236Z,3.60
2023-03-08T19:18:35.211Z,3.52
2023-03-08T19:21:07.205Z,3.60
2023-03-08T19:23:39.237Z,3.57
2023-03-08T19:26:32.730Z,3.57
2023-03-08T19:29:10.681Z,3.44
2023-03-08T19:31:51.189Z,3.39
2023-03-08T19:34:34.583Z,3.39
2023-03-08T19:37:07.401Z,3.39
2023-03-08T19:39:41.046Z,3.41
2023-03-08T19:42:16.200Z,3.33
2023-03-08T19:44:52.778Z,3.31
2023-03-08T19:47:24.912Z,3.25
2023-03-08T19:49:57.382Z,3.28
2023-03-08T19:52:29.642Z,3.30
2023-03-08T19:55:02.307Z,3.39
2023-03-08T19:57:34.570Z,3.44
2023-03-08T20:00:07.462Z,3.50
2023-03-08T20:02:46.345Z,3.55
2023-03-08T20:05:18.784Z,3.58
2023-03-08T20:07:50.820Z,3.56
2023-03-08T20:10:23.119Z,3.40
2023-03-08T20:12:57.963Z,3.47
2023-03-08T20:15:30.271Z,3.42
2023-03-08T20:18:02.325Z,3.42
2023-03-08T20:20:37.074Z,3.40
2023-03-08T20:23:11.224Z,3.42
2023-03-08T20:25:45.101Z,3.46
2023-03-08T20:28:18.345Z,3.53
2023-03-08T20:30:50.923Z,3.46
2023-03-08T20:33:23.114Z,3.47
2023-03-08T20:36:05.941Z,3.48
2023-03-08T20:38:38.923Z,3.45
2023-03-08T20:41:18.073Z,3.38
2023-03-08T20:43:52.331Z,3.35
2023-03-08T20:46:29.658Z,3.41
2023-03-08T20:49:02.087Z,3.45
2023-03-08T20:51:34.205Z,3.55
2023-03-08T20:54:06.395Z,3.59
2023-03-08T20:56:38.594Z,3.56
2023-03-08T20:59:14.636Z,3.64
2023-03-08T21:01:48.653Z,3.58
2023-03-08T21:04:21.563Z,3.48
2023-03-08T21:06:55.128Z,3.47
2023-03-08T21:09:27.192Z,3.48
2023-03-08T21:11:59.482Z,3.48
2023-03-08T21:14:31.668Z,3.48
2023-03-08T21:17:03.768Z,3.50
2023-03-08T21:19:35.872Z,3.53
2023-03-08T21:22:07.892Z,3.54
2023-03-08T21:24:40.134Z,3.54
2023-03-08T21:27:12.441Z,3.47
2023-03-08T21:29:44.681Z,3.44
2023-03-08T21:32:16.735Z,3.48
2023-03-08T21:34:48.791Z,3.56
2023-03-08T21:37:20.827Z,3.49
2023-03-08T21:39:55.186Z,3.45
2023-03-08T21:42:27.560Z,3.42
2023-03-08T21:45:02.937Z,3.39
2023-03-08T21:47:34.992Z,3.35
2023-03-08T21:50:09.922Z,3.36
2023-03-08T21:52:43.967Z,3.40
2023-03-08T21:55:16.143Z,3.40
2023-03-08T21:58:21.839Z,3.43
2023-03-08T22:00:54.499Z,3.39
2023-03-08T22:03:29.872Z,3.38
2023-03-08T22:06:02.045Z,3.34
2023-03-08T22:08:34.225Z,3.31
2023-03-08T22:11:07.548Z,3.34
2023-03-08T22:13:39.716Z,3.34
2023-03-08T22:16:11.770Z,3.31
2023-03-08T22:18:43.808Z,3.33
2023-03-08T22:21:15.794Z,3.39
2023-03-08T22:23:52.737Z,3.41
2023-03-08T22:26:26.628Z,3.40
2023-03-08T22:28:59.464Z,3.41
2023-03-08T22:31:31.668Z,3.45
2023-03-08T22:34:04.296Z,3.41
2023-03-08T22:36:36.490Z,3.41
2023-03-08T22:39:08.499Z,3.39
2023-03-08T22:41:42.072Z,3.35
2023-03-08T22:44:15.942Z,3.35
2023-03-08T22:46:48.194Z,3.36
2023-03-08T22:49:20.293Z,3.37
2023-03-08T22:51:54.916Z,3.35
2023-03-08T22:54:26.920Z,3.35
2023-03-08T22:56:59.424Z,3.37
2023-03-08T22:59:38.384Z,3.32
2023-03-08T23:02:10.374Z,3.35
2023-03-08T23:04:42.511Z,3.37
2023-03-08T23:07:14.669Z,3.39
2023-03-08T23:09:46.611Z,3.42
2023-03-08T23:12:18.912Z,3.38
2023-03-08T23:14:50.932Z,3.35
2023-03-08T23:17:22.989Z,3.43
2023-03-08T23:19:55.036Z,3.39
2023-03-08T23:22:27.352Z,3.36
2023-03-08T23:24:59.305Z,3.37
2023-03-08T23:27:33.227Z,3.33
2023-03-08T23:30:07.541Z,3.39
2023-03-08T23:32:42.698Z,3.34
2023-03-08T23:35:14.756Z,3.32
2023-03-08T23:37:47.201Z,3.33
2023-03-08T23:40:19.320Z,3.35
2023-03-08T23:42:51.341Z,3.32
2023-03-08T23:45:23.451Z,3.28
2023-03-08T23:47:55.470Z,3.32
2023-03-08T23:50:27.456Z,3.28
2023-03-08T23:52:59.528Z,3.31
2023-03-08T23:55:43.291Z,3.29
2023-03-08T23:58:15.304Z,3.26
